createdAt,value
2018-10-02T00:03:02.667Z,7.34
2018-10-02T00:06:07.802Z,7.34
2018-10-02T00:09:13.416Z,7.29
2018-10-02T00:12:23.185Z,7.43
2018-10-02T00:15:27.468Z,7.28
2018-10-02T00:18:31.740Z,7.25
2018-10-02T00:21:36.020Z,7.19
2018-10-02T00:24:40.307Z,7.25
2018-10-02T00:27:44.611Z,7.19
2018-10-02T00:30:48.887Z,7.22
2018-10-02T00:33:53.174Z,7.11
2018-10-02T00:36:57.445Z,7.08
2018-10-02T00:40:01.740Z,7.02
2018-10-02T00:43:06.061Z,7.03
2018-10-02T00:46:10.347Z,6.97
2018-10-02T00:49:14.683Z,6.95
2018-10-02T00:52:18.947Z,6.90
2018-10-02T00:55:23.225Z,6.83
2018-10-02T00:58:27.583Z,6.80
2018-10-02T01:01:31.861Z,6.89
2018-10-02T01:04:36.209Z,6.90
2018-10-02T01:07:40.499Z,7.00
2018-10-02T01:10:44.780Z,6.99
2018-10-02T01:13:49.128Z,6.91
2018-10-02T01:16:53.469Z,6.84
2018-10-02T01:19:57.756Z,6.80
2018-10-02T01:23:02.095Z,7.00
2018-10-02T01:26:06.483Z,6.80
2018-10-02T01:29:10.780Z,6.94
2018-10-02T01:32:15.126Z,6.83
2018-10-02T01:35:19.539Z,6.98
2018-10-02T01:38:23.891Z,6.92
2018-10-02T01:41:28.956Z,6.98
2018-10-02T01:44:33.677Z,7.05
2018-10-02T01:47:38.001Z,7.04
2018-10-02T01:50:42.509Z,6.97
2018-10-02T01:53:46.795Z,7.07
2018-10-02T01:56:51.144Z,7.03
2018-10-02T01:59:55.508Z,7.12
2018-10-02T02:02:59.884Z,7.18
2018-10-02T02:06:04.207Z,7.13
2018-10-02T02:09:08.716Z,7.03
2018-10-02T02:12:13.028Z,6.99
2018-10-02T02:15:17.354Z,6.93
2018-10-02T02:18:21.637Z,6.93
2018-10-02T02:21:25.953Z,6.85
2018-10-02T02:24:30.391Z,6.80
2018-10-02T02:27:34.683Z,6.81
2018-10-02T02:30:38.960Z,6.74
2018-10-02T02:33:43.366Z,6.65
2018-10-02T02:36:48.907Z,6.59
2018-10-02T02:39:53.164Z,6.53
2018-10-02T02:42:57.464Z,6.59
2018-10-02T02:46:02.816Z,6.65
2018-10-02T02:49:12.361Z,6.65
2018-10-02T02:52:18.483Z,6.68
2018-10-02T02:55:22.784Z,6.57
2018-10-02T02:58:27.128Z,6.30
2018-10-02T03:01:31.437Z,6.01
2018-10-02T03:04:35.803Z,5.94
2018-10-02T03:07:40.123Z,5.83
2018-10-02T03:10:45.020Z,5.68
2018-10-02T03:13:49.481Z,5.59
2018-10-02T03:16:53.823Z,5.55
2018-10-02T03:19:58.380Z,5.47
2018-10-02T03:23:02.695Z,5.40
2018-10-02T03:26:07.274Z,5.39
2018-10-02T03:29:12.296Z,5.43
2018-10-02T03:32:16.624Z,5.44
2018-10-02T03:35:22.072Z,5.33
2018-10-02T03:38:26.759Z,5.35
2018-10-02T03:41:31.066Z,5.49
2018-10-02T03:44:35.364Z,5.56
2018-10-02T03:47:39.730Z,5.66
2018-10-02T03:50:44.635Z,5.75
2018-10-02T03:53:49.111Z,5.87
2018-10-02T03:56:53.416Z,5.95
2018-10-02T03:59:57.911Z,5.97
2018-10-02T04:03:02.312Z,6.03
2018-10-02T04:06:06.924Z,6.00
2018-10-02T04:09:12.059Z,5.97
2018-10-02T04:12:16.356Z,6.00
2018-10-02T04:15:20.663Z,6.06
2018-10-02T04:18:25.000Z,6.02
2018-10-02T04:21:33.841Z,5.98
2018-10-02T04:24:38.382Z,6.08
2018-10-02T04:27:45.761Z,6.08
2018-10-02T04:30:50.059Z,6.19
2018-10-02T04:33:54.853Z,6.06
2018-10-02T04:36:59.185Z,6.08
2018-10-02T04:40:03.517Z,6.00
2018-10-02T04:43:07.896Z,5.98
2018-10-02T04:46:12.235Z,5.88
2018-10-02T04:49:16.638Z,6.13
2018-10-02T04:52:21.293Z,6.07
2018-10-02T04:55:26.032Z,6.13
2018-10-02T04:58:30.324Z,6.14
2018-10-02T05:01:35.207Z,6.09
2018-10-02T05:04:39.557Z,6.04
2018-10-02T05:07:43.872Z,6.02
2018-10-02T05:10:48.184Z,6.10
2018-10-02T05:13:53.340Z,6.07
2018-10-02T05:16:57.877Z,6.18
2018-10-02T05:20:02.192Z,6.11
2018-10-02T05:23:06.626Z,6.09
2018-10-02T05:26:11.606Z,6.12
2018-10-02T05:29:15.996Z,6.04
2018-10-02T05:32:20.573Z,6.00
2018-10-02T05:35:24.917Z,5.96
2018-10-02T05:38:29.298Z,6.06
2018-10-02T05:41:33.747Z,6.03
2018-10-02T05:44:38.090Z,5.97
2018-10-02T05:47:42.541Z,5.95
2018-10-02T05:50:46.955Z,5.98
2018-10-02T05:53:51.274Z,5.92
2018-10-02T05:56:55.625Z,6.08
2018-10-02T05:59:59.951Z,6.14
2018-10-02T06:03:04.305Z,6.16
2018-10-02T06:06:08.614Z,6.19
2018-10-02T06:09:14.225Z,6.09
2018-10-02T06:12:18.652Z,6.15
2018-10-02T06:15:22.994Z,6.18
2018-10-02T06:18:27.424Z,6.27
2018-10-02T06:21:32.015Z,6.31
2018-10-02T06:24:37.047Z,6.50
2018-10-02T06:27:41.345Z,6.49
2018-10-02T06:30:45.707Z,6.56
2018-10-02T06:33:50.109Z,6.65
2018-10-02T06:36:57.542Z,6.57
2018-10-02T06:40:01.903Z,6.70
2018-10-02T06:43:06.281Z,6.84
2018-10-02T06:46:10.633Z,6.93
2018-10-02T06:49:15.873Z,6.96
2018-10-02T06:52:20.426Z,6.92
2018-10-02T06:55:24.612Z,6.72
2018-10-02T06:58:28.949Z,6.44
2018-10-02T07:01:33.261Z,6.44
2018-10-02T07:04:37.564Z,6.35
2018-10-02T07:07:42.061Z,6.40
2018-10-02T07:10:46.424Z,6.55
2018-10-02T07:13:50.833Z,6.61
2018-10-02T07:16:55.558Z,6.65
2018-10-02T07:20:00.015Z,6.69
2018-10-02T07:23:04.340Z,7.04
2018-10-02T07:26:09.224Z,7.24
2018-10-02T07:29:13.660Z,7.29
2018-10-02T07:32:18.244Z,7.31
2018-10-02T07:35:22.621Z,7.33
2018-10-02T07:38:27.074Z,7.78
2018-10-02T07:41:31.762Z,8.05
2018-10-02T07:44:36.219Z,8.25
2018-10-02T07:47:40.613Z,8.38
2018-10-02T07:50:45.329Z,8.74
2018-10-02T07:53:49.678Z,8.93
2018-10-02T07:56:54.109Z,8.00
2018-10-02T07:59:58.620Z,7.87
2018-10-02T08:03:02.983Z,7.60
2018-10-02T08:06:07.662Z,7.49
2018-10-02T08:09:12.867Z,7.49
2018-10-02T08:12:17.316Z,7.45
2018-10-02T08:15:21.759Z,7.14
2018-10-02T08:18:26.087Z,7.09
2018-10-02T08:21:30.471Z,7.52
2018-10-02T08:24:34.936Z,7.60
2018-10-02T08:27:40.182Z,7.48
2018-10-02T08:30:45.577Z,7.57
2018-10-02T08:33:50.116Z,7.97
2018-10-02T08:36:54.571Z,8.22
2018-10-02T08:39:59.017Z,8.36
2018-10-02T08:43:03.568Z,8.51
2018-10-02T08:46:08.238Z,8.59
2018-10-02T08:49:12.605Z,8.74
2018-10-02T08:52:17.103Z,8.88
2018-10-02T08:55:21.458Z,9.11
2018-10-02T08:58:26.596Z,9.85
2018-10-02T09:01:31.156Z,10.09
2018-10-02T09:04:35.709Z,10.57
2018-10-02T09:07:40.216Z,10.85
2018-10-02T09:10:44.824Z,10.87
2018-10-02T09:13:49.154Z,10.45
2018-10-02T09:16:54.105Z,10.26
2018-10-02T09:19:58.424Z,10.25
2018-10-02T09:23:03.690Z,10.47
2018-10-02T09:26:07.993Z,10.28
2018-10-02T09:29:12.300Z,9.94
2018-10-02T09:32:22.516Z,9.30
2018-10-02T09:35:32.275Z,9.03
2018-10-02T09:38:41.788Z,8.89
2018-10-02T09:41:51.672Z,9.21
2018-10-02T09:44:56.000Z,9.03
2018-10-02T09:48:04.404Z,9.25
2018-10-02T09:51:09.616Z,9.52
2018-10-02T09:54:14.185Z,9.60
2018-10-02T09:57:18.600Z,9.32
2018-10-02T10:00:27.097Z,9.21
2018-10-02T10:03:31.508Z,9.46
2018-10-02T10:06:35.902Z,10.19
2018-10-02T10:09:40.317Z,11.01
2018-10-02T10:12:45.237Z,10.61
2018-10-02T10:15:49.713Z,11.07
2018-10-02T10:18:54.208Z,11.10
2018-10-02T10:21:58.644Z,11.05
2018-10-02T10:25:03.159Z,10.59
2018-10-02T10:28:07.757Z,10.75
2018-10-02T10:31:12.523Z,10.55
2018-10-02T10:34:17.026Z,10.68
2018-10-02T10:37:21.345Z,10.10
2018-10-02T10:40:25.746Z,10.09
2018-10-02T10:43:30.233Z,9.99
2018-10-02T10:46:34.834Z,10.08
2018-10-02T10:49:39.638Z,9.84
2018-10-02T10:52:44.888Z,10.29
2018-10-02T10:55:49.143Z,10.53
2018-10-02T10:58:53.864Z,10.32
2018-10-02T11:01:58.393Z,10.48
2018-10-02T11:05:02.839Z,10.80
2018-10-02T11:08:07.153Z,11.19
2018-10-02T11:11:11.449Z,11.60
2018-10-02T11:14:16.832Z,11.91
2018-10-02T11:17:21.356Z,11.92
2018-10-02T11:20:30.253Z,11.81
2018-10-02T11:23:34.759Z,12.06
2018-10-02T11:26:40.281Z,12.60
2018-10-02T11:29:44.690Z,12.84
2018-10-02T11:32:49.139Z,12.79
2018-10-02T11:35:53.453Z,12.35
2018-10-02T11:38:57.772Z,11.97
2018-10-02T11:42:02.084Z,11.78
2018-10-02T11:45:06.539Z,11.42
2018-10-02T11:48:11.139Z,11.11
2018-10-02T11:51:15.570Z,11.28
2018-10-02T11:54:20.013Z,11.69
2018-10-02T11:57:24.374Z,11.78
2018-10-02T12:00:28.752Z,11.58
2018-10-02T12:03:33.083Z,11.67
2018-10-02T12:06:37.418Z,11.54
2018-10-02T12:09:41.906Z,11.22
2018-10-02T12:12:46.236Z,11.18
2018-10-02T12:15:50.535Z,11.05
2018-10-02T12:18:55.509Z,10.92
2018-10-02T12:21:59.969Z,10.76
2018-10-02T12:25:04.309Z,10.77
2018-10-02T12:28:08.808Z,10.72
2018-10-02T12:31:13.251Z,10.85
2018-10-02T12:34:17.672Z,11.11
2018-10-02T12:37:22.309Z,11.43
2018-10-02T12:40:26.708Z,11.69
2018-10-02T12:43:31.207Z,12.03
2018-10-02T12:46:35.888Z,12.20
2018-10-02T12:49:41.015Z,12.17
2018-10-02T12:52:45.876Z,11.94
2018-10-02T12:55:50.167Z,12.10
2018-10-02T12:58:54.594Z,12.22
2018-10-02T13:01:59.083Z,12.18
2018-10-02T13:05:03.723Z,12.25
2018-10-02T13:08:08.119Z,12.33
2018-10-02T13:11:12.816Z,12.79
2018-10-02T13:14:19.595Z,12.78
2018-10-02T13:17:24.069Z,12.88
2018-10-02T13:20:28.833Z,12.86
2018-10-02T13:23:33.929Z,12.83
2018-10-02T13:26:38.436Z,12.84
2018-10-02T13:29:42.838Z,12.84
2018-10-02T13:32:47.226Z,12.87
2018-10-02T13:35:51.589Z,12.44
2018-10-02T13:38:56.086Z,12.65
2018-10-02T13:42:00.675Z,13.10
2018-10-02T13:45:05.465Z,12.97
2018-10-02T13:48:09.785Z,13.04
2018-10-02T13:51:14.132Z,12.90
2018-10-02T13:54:18.515Z,13.06
2018-10-02T13:57:23.099Z,13.15
2018-10-02T14:00:27.664Z,13.05
2018-10-02T14:03:31.969Z,13.15
2018-10-02T14:06:36.350Z,13.00
2018-10-02T14:09:40.909Z,12.78
2018-10-02T14:12:45.288Z,12.75
2018-10-02T14:15:49.592Z,12.41
2018-10-02T14:18:53.994Z,12.28
2018-10-02T14:21:58.393Z,12.26
2018-10-02T14:25:02.797Z,12.10
2018-10-02T14:28:07.198Z,12.02
2018-10-02T14:31:13.278Z,12.03
2018-10-02T14:34:17.732Z,12.16
2018-10-02T14:37:22.127Z,12.34
2018-10-02T14:40:26.520Z,12.36
2018-10-02T14:43:30.898Z,12.50
2018-10-02T14:46:35.208Z,12.34
2018-10-02T14:49:39.691Z,12.40
2018-10-02T14:52:43.877Z,12.33
2018-10-02T14:55:48.233Z,12.20
2018-10-02T14:58:52.622Z,12.00
2018-10-02T15:01:57.025Z,11.96
2018-10-02T15:05:01.535Z,11.93
2018-10-02T15:08:05.880Z,11.93
2018-10-02T15:11:10.480Z,11.88
2018-10-02T15:14:14.801Z,11.80
2018-10-02T15:17:19.245Z,11.77
2018-10-02T15:20:23.624Z,11.77
2018-10-02T15:23:27.954Z,11.63
2018-10-02T15:26:32.260Z,11.62
2018-10-02T15:29:36.699Z,11.57
2018-10-02T15:32:41.020Z,11.53
2018-10-02T15:35:45.338Z,11.36
2018-10-02T15:38:49.754Z,11.27
2018-10-02T15:41:54.070Z,11.29
2018-10-02T15:44:58.456Z,11.22
2018-10-02T15:48:02.955Z,11.21
2018-10-02T15:51:07.339Z,11.18
2018-10-02T15:54:11.685Z,11.14
2018-10-02T15:57:16.071Z,11.06
2018-10-02T16:00:20.542Z,11.11
2018-10-02T16:03:24.973Z,11.03
2018-10-02T16:06:29.330Z,11.01
2018-10-02T16:09:33.917Z,10.99
2018-10-02T16:12:38.315Z,10.89
2018-10-02T16:15:42.602Z,10.86
2018-10-02T16:18:46.978Z,10.85
2018-10-02T16:21:51.341Z,10.75
2018-10-02T16:24:55.911Z,10.66
2018-10-02T16:28:00.256Z,10.70
2018-10-02T16:31:04.664Z,10.59
2018-10-02T16:34:09.008Z,10.64
2018-10-02T16:37:13.417Z,10.56
2018-10-02T16:40:17.861Z,10.54
2018-10-02T16:43:22.258Z,10.43
2018-10-02T16:46:26.559Z,10.46
2018-10-02T16:49:30.881Z,10.48
2018-10-02T16:52:35.227Z,10.41
2018-10-02T16:55:39.517Z,10.27
2018-10-02T16:58:43.800Z,10.21
2018-10-02T17:01:48.088Z,10.24
2018-10-02T17:04:52.381Z,10.21
2018-10-02T17:07:56.681Z,10.27
2018-10-02T17:11:00.976Z,10.15
2018-10-02T17:14:05.330Z,10.14
2018-10-02T17:17:09.668Z,10.18
2018-10-02T17:20:14.032Z,10.14
2018-10-02T17:23:18.432Z,10.23
2018-10-02T17:26:22.722Z,10.18
2018-10-02T17:29:27.124Z,10.14
2018-10-02T17:32:31.526Z,10.14
2018-10-02T17:35:36.119Z,10.08
2018-10-02T17:38:40.466Z,10.19
2018-10-02T17:41:44.753Z,10.14
2018-10-02T17:44:49.057Z,10.16
2018-10-02T17:47:53.360Z,10.17
2018-10-02T17:50:57.716Z,10.09
2018-10-02T17:54:02.173Z,10.14
2018-10-02T17:57:06.534Z,10.13
2018-10-02T18:00:10.836Z,10.07
2018-10-02T18:03:15.518Z,10.04
2018-10-02T18:06:19.832Z,10.07
2018-10-02T18:09:24.146Z,10.12
2018-10-02T18:12:28.464Z,10.11
2018-10-02T18:15:33.238Z,10.16
2018-10-02T18:18:37.624Z,10.12
2018-10-02T18:21:41.970Z,10.15
2018-10-02T18:24:46.502Z,10.21
2018-10-02T18:27:50.909Z,10.10
2018-10-02T18:30:55.220Z,10.14
2018-10-02T18:33:59.597Z,10.22
2018-10-02T18:37:07.924Z,10.21
2018-10-02T18:40:13.768Z,10.27
2018-10-02T18:43:21.546Z,10.30
2018-10-02T18:46:28.769Z,10.29
2018-10-02T18:49:34.992Z,10.25
2018-10-02T18:52:42.845Z,10.25
2018-10-02T18:55:56.075Z,10.31
2018-10-02T18:59:04.799Z,10.30
2018-10-02T19:02:09.641Z,10.42
2018-10-02T19:05:14.109Z,10.39
2018-10-02T19:08:23.908Z,10.34
2018-10-02T19:12:33.260Z,10.34
2018-10-02T19:15:43.115Z,10.29
2018-10-02T19:18:47.482Z,10.34
2018-10-02T19:21:51.807Z,10.33
2018-10-02T19:24:56.449Z,10.34
2018-10-02T19:28:00.836Z,10.31
2018-10-02T19:31:10.353Z,10.34
2018-10-02T19:34:15.020Z,10.29
2018-10-02T19:37:24.999Z,10.37
2018-10-02T19:40:29.625Z,10.34
2018-10-02T19:43:34.630Z,10.32
2018-10-02T19:47:12.422Z,10.33
2018-10-02T19:50:17.340Z,10.26
2018-10-02T19:53:22.121Z,10.30
2018-10-02T19:56:26.670Z,10.25
2018-10-02T19:59:31.204Z,10.28
2018-10-02T20:02:35.621Z,10.28
2018-10-02T20:05:39.973Z,10.25
2018-10-02T20:08:44.927Z,10.30
2018-10-02T20:11:49.328Z,10.24
2018-10-02T20:14:53.820Z,10.16
2018-10-02T20:17:58.006Z,10.23
2018-10-02T20:21:02.385Z,10.24
2018-10-02T20:24:07.228Z,10.26
2018-10-02T20:27:11.875Z,10.22
2018-10-02T20:30:16.257Z,10.21
2018-10-02T20:33:20.998Z,10.17
2018-10-02T20:36:25.336Z,10.20
2018-10-02T20:39:29.681Z,10.14
2018-10-02T20:42:34.063Z,10.09
2018-10-02T20:45:38.915Z,10.12
2018-10-02T20:48:43.348Z,10.16
2018-10-02T20:51:47.928Z,10.05
2018-10-02T20:54:53.837Z,10.06
2018-10-02T20:57:58.812Z,10.04
2018-10-02T21:01:03.905Z,10.00
2018-10-02T21:04:08.450Z,10.06
2018-10-02T21:07:12.847Z,10.11
2018-10-02T21:10:17.259Z,10.14
2018-10-02T21:13:21.839Z,10.07
2018-10-02T21:16:27.198Z,10.13
2018-10-02T21:19:31.753Z,10.15
2018-10-02T21:22:36.165Z,10.21
2018-10-02T21:25:40.589Z,10.14
2018-10-02T21:28:45.139Z,10.16
2018-10-02T21:31:49.567Z,10.17
2018-10-02T21:34:54.345Z,10.12
2018-10-02T21:37:58.877Z,10.13
2018-10-02T21:41:03.391Z,10.18
2018-10-02T21:44:07.913Z,10.19
2018-10-02T21:47:13.918Z,10.19
2018-10-02T21:50:18.478Z,10.14
2018-10-02T21:53:22.901Z,10.10
2018-10-02T21:56:27.769Z,10.20
2018-10-02T21:59:32.093Z,10.14
2018-10-02T22:02:36.641Z,10.04
2018-10-02T22:05:40.964Z,10.00
2018-10-02T22:08:45.797Z,10.00
2018-10-02T22:11:51.030Z,9.88
2018-10-02T22:14:55.491Z,9.87
2018-10-02T22:17:59.808Z,9.83
2018-10-02T22:21:04.874Z,9.82
2018-10-02T22:24:09.425Z,9.79
2018-10-02T22:27:13.764Z,9.84
2018-10-02T22:30:19.519Z,9.82
2018-10-02T22:33:23.925Z,9.87
2018-10-02T22:36:28.314Z,9.88
2018-10-02T22:39:32.679Z,9.84
2018-10-02T22:42:37.738Z,9.84
2018-10-02T22:45:42.403Z,9.78
2018-10-02T22:48:46.726Z,9.82
2018-10-02T22:51:51.055Z,9.88
2018-10-02T22:54:55.723Z,9.84
2018-10-02T22:58:00.280Z,9.90
2018-10-02T23:01:04.876Z,9.85
2018-10-02T23:04:09.642Z,9.80
2018-10-02T23:07:14.105Z,9.86
2018-10-02T23:10:19.244Z,9.91
2018-10-02T23:13:23.635Z,9.96
2018-10-02T23:16:28.134Z,9.90
2018-10-02T23:19:32.704Z,9.93
2018-10-02T23:22:37.072Z,9.99
2018-10-02T23:25:41.653Z,9.99
2018-10-02T23:28:46.662Z,10.04
2018-10-02T23:31:51.147Z,10.01
2018-10-02T23:34:55.755Z,9.99
2018-10-02T23:38:00.117Z,9.91
2018-10-02T23:41:04.505Z,9.94
2018-10-02T23:44:08.909Z,9.94
2018-10-02T23:47:13.313Z,9.94
2018-10-02T23:50:17.633Z,10.00
2018-10-02T23:53:22.084Z,10.03
2018-10-02T23:56:26.932Z,9.96
2018-10-02T23:59:31.327Z,9.98
